sensor_id;sensor_type;location;lat;lon;timestamp;P1;durP1;ratioP1;P2;durP2;ratioP2
14241;SDS011;7205;50.864;12.766;2022-11-10T00:01:57;1.20;;;0.80;;
14241;SDS011;7205;50.864;12.766;2022-11-10T00:04:45;2.80;;;0.90;;
14241;SDS011;7205;50.864;12.766;2022-11-10T00:07:32;3.23;;;1.00;;
14241;SDS011;7205;50.864;12.766;2022-11-10T00:10:17;2.27;;;0.80;;
14241;SDS011;7205;50.864;12.766;2022-11-10T00:13:03;1.93;;;1.00;;
14241;SDS011;7205;50.864;12.766;2022-11-10T00:15:49;0.90;;;0.90;;
14241;SDS011;7205;50.864;12.766;2022-11-10T00:18:52;1.40;;;1.00;;
14241;SDS011;7205;50.864;12.766;2022-11-10T00:21:38;1.70;;;1.10;;
14241;SDS011;7205;50.864;12.766;2022-11-10T00:24:25;1.57;;;0.80;;
14241;SDS011;7205;50.864;12.766;2022-11-10T00:27:12;2.37;;;1.00;;
14241;SDS011;7205;50.864;12.766;2022-11-10T00:29:58;2.20;;;0.90;;
14241;SDS011;7205;50.864;12.766;2022-11-10T00:32:45;1.97;;;1.10;;
14241;SDS011;7205;50.864;12.766;2022-11-10T00:35:31;1.67;;;0.83;;
14241;SDS011;7205;50.864;12.766;2022-11-10T00:38:17;2.57;;;1.10;;
14241;SDS011;7205;50.864;12.766;2022-11-10T00:41:04;5.27;;;1.13;;
14241;SDS011;7205;50.864;12.766;2022-11-10T00:43:50;1.33;;;0.80;;
14241;SDS011;7205;50.864;12.766;2022-11-10T00:46:36;1.33;;;0.87;;
14241;SDS011;7205;50.864;12.766;2022-11-10T00:49:22;1.10;;;1.00;;
14241;SDS011;7205;50.864;12.766;2022-11-10T00:52:08;2.00;;;1.10;;
14241;SDS011;7205;50.864;12.766;2022-11-10T00:54:54;2.67;;;1.10;;
14241;SDS011;7205;50.864;12.766;2022-11-10T00:57:41;0.87;;;0.80;;
14241;SDS011;7205;50.864;12.766;2022-11-10T01:00:27;1.90;;;1.00;;
14241;SDS011;7205;50.864;12.766;2022-11-10T01:03:14;1.30;;;0.80;;
14241;SDS011;7205;50.864;12.766;2022-11-10T01:06:03;2.13;;;1.17;;
14241;SDS011;7205;50.864;12.766;2022-11-10T01:08:49;1.90;;;0.90;;
14241;SDS011;7205;50.864;12.766;2022-11-10T01:11:35;3.13;;;1.20;;
14241;SDS011;7205;50.864;12.766;2022-11-10T01:14:23;2.97;;;1.20;;
14241;SDS011;7205;50.864;12.766;2022-11-10T01:17:09;2.47;;;1.30;;
14241;SDS011;7205;50.864;12.766;2022-11-10T01:19:54;3.20;;;1.10;;
14241;SDS011;7205;50.864;12.766;2022-11-10T01:22:41;2.37;;;1.00;;
14241;SDS011;7205;50.864;12.766;2022-11-10T01:25:27;3.07;;;1.10;;
14241;SDS011;7205;50.864;12.766;2022-11-10T01:28:12;4.13;;;1.40;;
14241;SDS011;7205;50.864;12.766;2022-11-10T01:30:59;2.17;;;1.00;;
14241;SDS011;7205;50.864;12.766;2022-11-10T01:33:46;2.50;;;1.20;;
14241;SDS011;7205;50.864;12.766;2022-11-10T01:36:32;2.53;;;1.00;;
14241;SDS011;7205;50.864;12.766;2022-11-10T01:39:18;4.07;;;1.27;;
14241;SDS011;7205;50.864;12.766;2022-11-10T01:42:03;2.07;;;1.10;;
14241;SDS011;7205;50.864;12.766;2022-11-10T01:48:15;2.73;;;1.20;;
14241;SDS011;7205;50.864;12.766;2022-11-10T01:51:04;2.73;;;0.97;;
14241;SDS011;7205;50.864;12.766;2022-11-10T01:53:55;1.43;;;0.70;;
14241;SDS011;7205;50.864;12.766;2022-11-10T01:56:44;2.70;;;1.10;;
14241;SDS011;7205;50.864;12.766;2022-11-10T01:59:34;2.90;;;1.23;;
14241;SDS011;7205;50.864;12.766;2022-11-10T02:02:24;2.70;;;1.00;;
14241;SDS011;7205;50.864;12.766;2022-11-10T02:05:15;2.87;;;1.07;;
14241;SDS011;7205;50.864;12.766;2022-11-10T02:08:01;3.07;;;1.00;;
14241;SDS011;7205;50.864;12.766;2022-11-10T02:10:48;2.47;;;1.20;;
14241;SDS011;7205;50.864;12.766;2022-11-10T02:13:34;3.40;;;1.00;;
14241;SDS011;7205;50.864;12.766;2022-11-10T02:16:20;1.60;;;1.10;;
14241;SDS011;7205;50.864;12.766;2022-11-10T02:19:13;1.90;;;1.20;;
14241;SDS011;7205;50.864;12.766;2022-11-10T02:22:01;2.07;;;1.10;;
14241;SDS011;7205;50.864;12.766;2022-11-10T02:24:47;1.83;;;1.00;;
14241;SDS011;7205;50.864;12.766;2022-11-10T02:27:32;3.70;;;1.30;;
14241;SDS011;7205;50.864;12.766;2022-11-10T02:30:18;1.90;;;1.10;;
14241;SDS011;7205;50.864;12.766;2022-11-10T02:33:04;3.13;;;1.10;;
14241;SDS011;7205;50.864;12.766;2022-11-10T02:35:50;1.53;;;1.20;;
14241;SDS011;7205;50.864;12.766;2022-11-10T02:38:38;1.80;;;1.10;;
14241;SDS011;7205;50.864;12.766;2022-11-10T02:41:27;2.63;;;1.20;;
14241;SDS011;7205;50.864;12.766;2022-11-10T02:44:14;4.37;;;1.40;;
14241;SDS011;7205;50.864;12.766;2022-11-10T02:47:07;2.10;;;1.20;;
14241;SDS011;7205;50.864;12.766;2022-11-10T02:49:58;3.63;;;1.27;;
14241;SDS011;7205;50.864;12.766;2022-11-10T02:52:49;2.13;;;1.07;;
14241;SDS011;7205;50.864;12.766;2022-11-10T02:55:40;2.90;;;1.30;;
14241;SDS011;7205;50.864;12.766;2022-11-10T02:58:28;1.10;;;1.00;;
14241;SDS011;7205;50.864;12.766;2022-11-10T03:01:18;3.43;;;0.90;;
14241;SDS011;7205;50.864;12.766;2022-11-10T03:04:07;2.00;;;0.97;;
14241;SDS011;7205;50.864;12.766;2022-11-10T03:06:53;4.00;;;1.20;;
14241;SDS011;7205;50.864;12.766;2022-11-10T03:09:41;2.87;;;1.17;;
14241;SDS011;7205;50.864;12.766;2022-11-10T03:12:29;2.80;;;1.10;;
14241;SDS011;7205;50.864;12.766;2022-11-10T03:15:14;1.80;;;1.30;;
14241;SDS011;7205;50.864;12.766;2022-11-10T03:18:01;5.57;;;1.20;;
14241;SDS011;7205;50.864;12.766;2022-11-10T03:20:47;1.90;;;1.33;;
14241;SDS011;7205;50.864;12.766;2022-11-10T03:23:33;3.10;;;1.20;;
14241;SDS011;7205;50.864;12.766;2022-11-10T03:26:20;5.00;;;1.23;;
14241;SDS011;7205;50.864;12.766;2022-11-10T03:29:07;3.87;;;1.30;;
14241;SDS011;7205;50.864;12.766;2022-11-10T03:31:52;2.40;;;1.10;;
14241;SDS011;7205;50.864;12.766;2022-11-10T03:34:38;5.27;;;1.30;;
14241;SDS011;7205;50.864;12.766;2022-11-10T03:37:24;5.83;;;1.47;;
14241;SDS011;7205;50.864;12.766;2022-11-10T03:40:10;2.43;;;1.23;;
14241;SDS011;7205;50.864;12.766;2022-11-10T03:42:56;2.97;;;1.20;;
14241;SDS011;7205;50.864;12.766;2022-11-10T03:45:44;2.53;;;1.33;;
14241;SDS011;7205;50.864;12.766;2022-11-10T03:48:30;1.77;;;1.37;;
14241;SDS011;7205;50.864;12.766;2022-11-10T03:51:16;3.37;;;1.23;;
14241;SDS011;7205;50.864;12.766;2022-11-10T03:54:01;1.30;;;1.17;;
14241;SDS011;7205;50.864;12.766;2022-11-10T03:56:47;5.13;;;1.30;;
14241;SDS011;7205;50.864;12.766;2022-11-10T03:59:33;1.37;;;1.10;;
14241;SDS011;7205;50.864;12.766;2022-11-10T04:02:20;7.73;;;1.87;;
14241;SDS011;7205;50.864;12.766;2022-11-10T04:05:07;4.83;;;1.40;;
14241;SDS011;7205;50.864;12.766;2022-11-10T04:08:16;3.93;;;1.97;;
14241;SDS011;7205;50.864;12.766;2022-11-10T04:11:19;2.10;;;2.00;;
14241;SDS011;7205;50.864;12.766;2022-11-10T04:14:19;5.27;;;2.13;;
14241;SDS011;7205;50.864;12.766;2022-11-10T04:17:25;5.97;;;4.23;;
14241;SDS011;7205;50.864;12.766;2022-11-10T04:20:18;10.20;;;6.80;;
14241;SDS011;7205;50.864;12.766;2022-11-10T04:23:11;5.87;;;4.67;;
14241;SDS011;7205;50.864;12.766;2022-11-10T04:26:18;5.20;;;3.80;;
14241;SDS011;7205;50.864;12.766;2022-11-10T04:29:14;2.93;;;2.00;;
14241;SDS011;7205;50.864;12.766;2022-11-10T04:32:00;3.60;;;3.30;;
14241;SDS011;7205;50.864;12.766;2022-11-10T04:34:47;3.17;;;2.37;;
14241;SDS011;7205;50.864;12.766;2022-11-10T04:37:34;6.00;;;3.00;;
14241;SDS011;7205;50.864;12.766;2022-11-10T04:40:20;4.43;;;2.50;;
14241;SDS011;7205;50.864;12.766;2022-11-10T04:43:06;3.67;;;2.50;;
14241;SDS011;7205;50.864;12.766;2022-11-10T04:45:52;6.73;;;3.97;;
14241;SDS011;7205;50.864;12.766;2022-11-10T04:48:38;5.57;;;3.83;;
14241;SDS011;7205;50.864;12.766;2022-11-10T04:51:26;5.33;;;3.10;;
14241;SDS011;7205;50.864;12.766;2022-11-10T04:54:13;2.57;;;1.57;;
14241;SDS011;7205;50.864;12.766;2022-11-10T04:56:59;5.30;;;2.03;;
14241;SDS011;7205;50.864;12.766;2022-11-10T04:59:47;4.03;;;2.70;;
14241;SDS011;7205;50.864;12.766;2022-11-10T05:02:33;1.63;;;1.53;;
14241;SDS011;7205;50.864;12.766;2022-11-10T05:05:19;2.70;;;1.67;;
14241;SDS011;7205;50.864;12.766;2022-11-10T05:08:06;3.67;;;1.70;;
14241;SDS011;7205;50.864;12.766;2022-11-10T05:10:52;5.43;;;2.07;;
14241;SDS011;7205;50.864;12.766;2022-11-10T05:13:38;1.93;;;1.60;;
14241;SDS011;7205;50.864;12.766;2022-11-10T05:16:24;2.27;;;1.60;;
14241;SDS011;7205;50.864;12.766;2022-11-10T05:19:09;2.70;;;1.47;;
14241;SDS011;7205;50.864;12.766;2022-11-10T05:21:55;3.00;;;1.53;;
14241;SDS011;7205;50.864;12.766;2022-11-10T05:24:42;2.17;;;1.50;;
14241;SDS011;7205;50.864;12.766;2022-11-10T05:27:27;2.83;;;1.43;;
14241;SDS011;7205;50.864;12.766;2022-11-10T05:30:14;8.47;;;1.63;;
14241;SDS011;7205;50.864;12.766;2022-11-10T05:33:00;2.60;;;1.37;;
14241;SDS011;7205;50.864;12.766;2022-11-10T05:35:47;3.30;;;2.00;;
14241;SDS011;7205;50.864;12.766;2022-11-10T05:38:33;3.83;;;3.30;;
14241;SDS011;7205;50.864;12.766;2022-11-10T05:41:22;4.37;;;2.70;;
14241;SDS011;7205;50.864;12.766;2022-11-10T05:44:08;6.60;;;5.33;;
14241;SDS011;7205;50.864;12.766;2022-11-10T05:46:53;6.43;;;4.10;;
14241;SDS011;7205;50.864;12.766;2022-11-10T05:49:39;7.00;;;3.67;;
14241;SDS011;7205;50.864;12.766;2022-11-10T05:52:25;11.70;;;4.00;;
14241;SDS011;7205;50.864;12.766;2022-11-10T05:55:11;4.33;;;2.90;;
14241;SDS011;7205;50.864;12.766;2022-11-10T05:57:59;4.50;;;2.77;;
14241;SDS011;7205;50.864;12.766;2022-11-10T06:00:44;4.10;;;2.47;;
14241;SDS011;7205;50.864;12.766;2022-11-10T06:03:30;4.83;;;2.30;;
14241;SDS011;7205;50.864;12.766;2022-11-10T06:06:17;4.07;;;2.20;;
14241;SDS011;7205;50.864;12.766;2022-11-10T06:09:03;9.30;;;2.23;;
14241;SDS011;7205;50.864;12.766;2022-11-10T06:11:49;3.37;;;2.23;;
14241;SDS011;7205;50.864;12.766;2022-11-10T06:14:36;6.03;;;2.17;;
14241;SDS011;7205;50.864;12.766;2022-11-10T06:17:21;4.33;;;2.20;;
14241;SDS011;7205;50.864;12.766;2022-11-10T06:20:08;3.63;;;2.00;;
14241;SDS011;7205;50.864;12.766;2022-11-10T06:22:57;4.87;;;1.90;;
14241;SDS011;7205;50.864;12.766;2022-11-10T06:25:44;4.37;;;3.30;;
14241;SDS011;7205;50.864;12.766;2022-11-10T06:28:30;6.97;;;2.00;;
14241;SDS011;7205;50.864;12.766;2022-11-10T06:31:17;4.50;;;1.83;;
14241;SDS011;7205;50.864;12.766;2022-11-10T06:34:03;4.63;;;2.00;;
14241;SDS011;7205;50.864;12.766;2022-11-10T06:36:48;4.37;;;2.63;;
14241;SDS011;7205;50.864;12.766;2022-11-10T06:39:33;5.47;;;2.00;;
14241;SDS011;7205;50.864;12.766;2022-11-10T06:42:19;2.23;;;2.00;;
14241;SDS011;7205;50.864;12.766;2022-11-10T06:45:05;4.53;;;2.30;;
14241;SDS011;7205;50.864;12.766;2022-11-10T06:47:58;5.23;;;2.67;;
14241;SDS011;7205;50.864;12.766;2022-11-10T06:50:45;3.23;;;1.90;;
14241;SDS011;7205;50.864;12.766;2022-11-10T06:53:31;4.17;;;2.30;;
14241;SDS011;7205;50.864;12.766;2022-11-10T06:56:16;6.07;;;2.50;;
14241;SDS011;7205;50.864;12.766;2022-11-10T06:59:02;4.63;;;2.53;;
14241;SDS011;7205;50.864;12.766;2022-11-10T07:01:47;2.47;;;1.80;;
14241;SDS011;7205;50.864;12.766;2022-11-10T07:04:35;4.07;;;2.07;;
14241;SDS011;7205;50.864;12.766;2022-11-10T07:07:20;4.27;;;1.70;;
14241;SDS011;7205;50.864;12.766;2022-11-10T07:10:06;5.80;;;2.33;;
14241;SDS011;7205;50.864;12.766;2022-11-10T07:12:55;5.47;;;2.30;;
14241;SDS011;7205;50.864;12.766;2022-11-10T07:15:41;4.43;;;1.87;;
14241;SDS011;7205;50.864;12.766;2022-11-10T07:18:27;3.63;;;1.80;;
14241;SDS011;7205;50.864;12.766;2022-11-10T07:21:14;3.77;;;1.90;;
14241;SDS011;7205;50.864;12.766;2022-11-10T07:23:59;3.13;;;1.67;;
14241;SDS011;7205;50.864;12.766;2022-11-10T07:26:47;3.67;;;1.87;;
14241;SDS011;7205;50.864;12.766;2022-11-10T07:29:35;2.90;;;2.20;;
14241;SDS011;7205;50.864;12.766;2022-11-10T07:32:22;5.07;;;1.90;;
14241;SDS011;7205;50.864;12.766;2022-11-10T07:35:08;4.27;;;2.43;;
14241;SDS011;7205;50.864;12.766;2022-11-10T07:37:55;3.83;;;1.90;;
14241;SDS011;7205;50.864;12.766;2022-11-10T07:40:41;5.97;;;2.10;;
14241;SDS011;7205;50.864;12.766;2022-11-10T07:43:26;3.40;;;1.90;;
14241;SDS011;7205;50.864;12.766;2022-11-10T07:46:11;2.93;;;1.50;;
14241;SDS011;7205;50.864;12.766;2022-11-10T07:48:57;2.93;;;1.70;;
14241;SDS011;7205;50.864;12.766;2022-11-10T07:51:43;6.30;;;2.27;;
14241;SDS011;7205;50.864;12.766;2022-11-10T07:54:30;3.43;;;2.20;;
14241;SDS011;7205;50.864;12.766;2022-11-10T07:57:15;5.43;;;2.10;;
14241;SDS011;7205;50.864;12.766;2022-11-10T08:00:01;5.10;;;2.50;;
14241;SDS011;7205;50.864;12.766;2022-11-10T08:02:47;2.93;;;1.93;;
14241;SDS011;7205;50.864;12.766;2022-11-10T08:05:33;4.00;;;2.27;;
14241;SDS011;7205;50.864;12.766;2022-11-10T08:08:19;2.47;;;2.30;;
14241;SDS011;7205;50.864;12.766;2022-11-10T08:11:06;3.83;;;2.30;;
14241;SDS011;7205;50.864;12.766;2022-11-10T08:13:52;5.40;;;2.40;;
14241;SDS011;7205;50.864;12.766;2022-11-10T08:16:37;6.13;;;2.70;;
14241;SDS011;7205;50.864;12.766;2022-11-10T08:19:23;5.87;;;2.60;;
14241;SDS011;7205;50.864;12.766;2022-11-10T08:22:09;3.20;;;2.00;;
14241;SDS011;7205;50.864;12.766;2022-11-10T08:24:54;3.43;;;2.20;;
14241;SDS011;7205;50.864;12.766;2022-11-10T08:27:42;5.60;;;3.00;;
14241;SDS011;7205;50.864;12.766;2022-11-10T08:30:28;4.20;;;3.13;;
14241;SDS011;7205;50.864;12.766;2022-11-10T08:33:14;3.43;;;2.43;;
14241;SDS011;7205;50.864;12.766;2022-11-10T08:36:04;4.00;;;2.30;;
14241;SDS011;7205;50.864;12.766;2022-11-10T08:38:49;5.17;;;2.33;;
14241;SDS011;7205;50.864;12.766;2022-11-10T08:41:35;4.43;;;2.73;;
14241;SDS011;7205;50.864;12.766;2022-11-10T08:44:22;2.37;;;2.17;;
14241;SDS011;7205;50.864;12.766;2022-11-10T08:47:08;3.93;;;2.90;;
14241;SDS011;7205;50.864;12.766;2022-11-10T08:49:53;4.03;;;2.50;;
14241;SDS011;7205;50.864;12.766;2022-11-10T08:52:39;4.70;;;2.40;;
14241;SDS011;7205;50.864;12.766;2022-11-10T08:55:24;3.47;;;1.70;;
14241;SDS011;7205;50.864;12.766;2022-11-10T08:58:10;4.63;;;2.40;;
14241;SDS011;7205;50.864;12.766;2022-11-10T09:00:59;3.00;;;1.80;;
14241;SDS011;7205;50.864;12.766;2022-11-10T09:03:44;5.13;;;1.97;;
14241;SDS011;7205;50.864;12.766;2022-11-10T09:06:30;3.33;;;2.07;;
14241;SDS011;7205;50.864;12.766;2022-11-10T09:09:16;2.80;;;1.63;;
14241;SDS011;7205;50.864;12.766;2022-11-10T09:12:02;5.30;;;1.83;;
14241;SDS011;7205;50.864;12.766;2022-11-10T09:14:47;5.13;;;2.03;;
14241;SDS011;7205;50.864;12.766;2022-11-10T09:29:24;4.97;;;1.60;;
14241;SDS011;7205;50.864;12.766;2022-11-10T09:32:10;2.50;;;1.70;;
14241;SDS011;7205;50.864;12.766;2022-11-10T09:34:55;2.23;;;1.50;;
14241;SDS011;7205;50.864;12.766;2022-11-10T09:37:41;4.27;;;1.80;;
14241;SDS011;7205;50.864;12.766;2022-11-10T09:40:28;3.30;;;1.80;;
14241;SDS011;7205;50.864;12.766;2022-11-10T09:43:24;3.10;;;1.43;;
14241;SDS011;7205;50.864;12.766;2022-11-10T09:46:27;4.80;;;1.53;;
14241;SDS011;7205;50.864;12.766;2022-11-10T09:49:24;4.33;;;1.90;;
14241;SDS011;7205;50.864;12.766;2022-11-10T09:52:17;2.63;;;1.50;;
14241;SDS011;7205;50.864;12.766;2022-11-10T09:55:11;2.70;;;1.40;;
14241;SDS011;7205;50.864;12.766;2022-11-10T09:58:07;3.80;;;1.87;;
14241;SDS011;7205;50.864;12.766;2022-11-10T10:00:58;3.47;;;1.50;;
14241;SDS011;7205;50.864;12.766;2022-11-10T10:03:56;2.33;;;1.67;;
14241;SDS011;7205;50.864;12.766;2022-11-10T10:06:50;3.07;;;1.63;;
14241;SDS011;7205;50.864;12.766;2022-11-10T10:09:44;3.33;;;1.57;;
14241;SDS011;7205;50.864;12.766;2022-11-10T10:12:41;3.60;;;1.60;;
14241;SDS011;7205;50.864;12.766;2022-11-10T10:15:36;3.03;;;1.53;;
14241;SDS011;7205;50.864;12.766;2022-11-10T10:18:31;2.60;;;1.77;;
14241;SDS011;7205;50.864;12.766;2022-11-10T10:21:26;4.90;;;1.43;;
14241;SDS011;7205;50.864;12.766;2022-11-10T10:24:28;6.60;;;2.07;;
14241;SDS011;7205;50.864;12.766;2022-11-10T10:27:19;3.23;;;1.30;;
14241;SDS011;7205;50.864;12.766;2022-11-10T10:30:10;4.37;;;1.90;;
14241;SDS011;7205;50.864;12.766;2022-11-10T10:32:59;3.47;;;1.53;;
14241;SDS011;7205;50.864;12.766;2022-11-10T10:36:01;3.13;;;1.83;;
14241;SDS011;7205;50.864;12.766;2022-11-10T10:38:54;3.67;;;1.73;;
14241;SDS011;7205;50.864;12.766;2022-11-10T10:41:43;5.23;;;1.70;;
14241;SDS011;7205;50.864;12.766;2022-11-10T10:44:29;5.37;;;1.80;;
14241;SDS011;7205;50.864;12.766;2022-11-10T10:47:15;3.57;;;1.47;;
14241;SDS011;7205;50.864;12.766;2022-11-10T10:50:13;5.90;;;2.07;;
14241;SDS011;7205;50.864;12.766;2022-11-10T10:53:13;4.23;;;1.63;;
14241;SDS011;7205;50.864;12.766;2022-11-10T10:56:04;6.33;;;1.90;;
14241;SDS011;7205;50.864;12.766;2022-11-10T11:58:11;2.10;;;1.43;;
14241;SDS011;7205;50.864;12.766;2022-11-10T12:01:17;4.20;;;1.30;;
14241;SDS011;7205;50.864;12.766;2022-11-10T12:04:19;4.27;;;1.47;;
14241;SDS011;7205;50.864;12.766;2022-11-10T12:07:31;4.00;;;1.70;;
14241;SDS011;7205;50.864;12.766;2022-11-10T12:10:31;2.87;;;1.27;;
14241;SDS011;7205;50.864;12.766;2022-11-10T12:13:34;4.30;;;1.50;;
14241;SDS011;7205;50.864;12.766;2022-11-10T12:16:23;4.97;;;1.80;;
14241;SDS011;7205;50.864;12.766;2022-11-10T12:19:16;3.03;;;1.47;;
14241;SDS011;7205;50.864;12.766;2022-11-10T12:22:15;4.30;;;1.60;;
14241;SDS011;7205;50.864;12.766;2022-11-10T12:25:12;3.70;;;1.33;;
14241;SDS011;7205;50.864;12.766;2022-11-10T12:28:08;6.13;;;1.60;;
14241;SDS011;7205;50.864;12.766;2022-11-10T12:31:00;1.73;;;1.20;;
14241;SDS011;7205;50.864;12.766;2022-11-10T12:33:48;4.10;;;1.53;;
14241;SDS011;7205;50.864;12.766;2022-11-10T12:36:40;4.17;;;1.80;;
14241;SDS011;7205;50.864;12.766;2022-11-10T12:39:28;3.93;;;1.70;;
14241;SDS011;7205;50.864;12.766;2022-11-10T12:42:23;2.87;;;1.30;;
14241;SDS011;7205;50.864;12.766;2022-11-10T12:45:16;2.47;;;1.30;;
14241;SDS011;7205;50.864;12.766;2022-11-10T12:48:07;5.63;;;1.33;;
14241;SDS011;7205;50.864;12.766;2022-11-10T12:50:56;5.87;;;1.70;;
14241;SDS011;7205;50.864;12.766;2022-11-10T12:53:47;5.40;;;1.60;;
14241;SDS011;7205;50.864;12.766;2022-11-10T12:56:34;5.77;;;1.30;;
14241;SDS011;7205;50.864;12.766;2022-11-10T12:59:28;5.57;;;1.57;;
14241;SDS011;7205;50.864;12.766;2022-11-10T13:02:17;4.40;;;1.70;;
14241;SDS011;7205;50.864;12.766;2022-11-10T13:08:22;4.23;;;1.43;;
14241;SDS011;7205;50.864;12.766;2022-11-10T13:11:19;2.73;;;1.40;;
14241;SDS011;7205;50.864;12.766;2022-11-10T13:14:18;2.50;;;1.20;;
14241;SDS011;7205;50.864;12.766;2022-11-10T13:17:07;5.30;;;1.53;;
14241;SDS011;7205;50.864;12.766;2022-11-10T13:19:53;2.90;;;1.90;;
14241;SDS011;7205;50.864;12.766;2022-11-10T13:22:41;2.93;;;1.50;;
14241;SDS011;7205;50.864;12.766;2022-11-10T13:25:40;5.07;;;1.23;;
14241;SDS011;7205;50.864;12.766;2022-11-10T13:31:48;3.37;;;1.40;;
14241;SDS011;7205;50.864;12.766;2022-11-10T13:34:36;6.20;;;1.73;;
14241;SDS011;7205;50.864;12.766;2022-11-10T13:40:36;3.10;;;1.50;;
14241;SDS011;7205;50.864;12.766;2022-11-10T13:43:24;4.87;;;1.50;;
14241;SDS011;7205;50.864;12.766;2022-11-10T13:46:11;2.60;;;1.00;;
14241;SDS011;7205;50.864;12.766;2022-11-10T13:49:15;4.63;;;1.40;;
14241;SDS011;7205;50.864;12.766;2022-11-10T13:52:21;4.30;;;1.53;;
14241;SDS011;7205;50.864;12.766;2022-11-10T13:55:16;3.77;;;1.47;;
14241;SDS011;7205;50.864;12.766;2022-11-10T13:58:16;4.77;;;1.50;;
14241;SDS011;7205;50.864;12.766;2022-11-10T14:01:20;3.20;;;1.70;;
14241;SDS011;7205;50.864;12.766;2022-11-10T14:07:34;6.93;;;2.60;;
14241;SDS011;7205;50.864;12.766;2022-11-10T14:10:32;4.53;;;1.50;;
14241;SDS011;7205;50.864;12.766;2022-11-10T14:13:23;5.30;;;2.23;;
14241;SDS011;7205;50.864;12.766;2022-11-10T14:16:16;4.47;;;1.33;;
14241;SDS011;7205;50.864;12.766;2022-11-10T14:19:14;5.27;;;1.63;;
14241;SDS011;7205;50.864;12.766;2022-11-10T14:22:09;5.20;;;1.67;;
14241;SDS011;7205;50.864;12.766;2022-11-10T14:25:05;4.10;;;1.80;;
14241;SDS011;7205;50.864;12.766;2022-11-10T14:28:03;1.90;;;1.20;;
14241;SDS011;7205;50.864;12.766;2022-11-10T14:31:15;3.97;;;1.90;;
14241;SDS011;7205;50.864;12.766;2022-11-10T14:34:04;4.00;;;1.90;;
14241;SDS011;7205;50.864;12.766;2022-11-10T15:24:04;5.60;;;2.80;;
14241;SDS011;7205;50.864;12.766;2022-11-10T16:25:06;7.87;;;2.90;;
14241;SDS011;7205;50.864;12.766;2022-11-10T16:27:51;5.17;;;2.70;;
14241;SDS011;7205;50.864;12.766;2022-11-10T16:30:37;5.30;;;2.67;;
14241;SDS011;7205;50.864;12.766;2022-11-10T16:33:26;6.97;;;3.03;;
14241;SDS011;7205;50.864;12.766;2022-11-10T16:36:15;4.53;;;2.70;;
14241;SDS011;7205;50.864;12.766;2022-11-10T16:39:10;7.37;;;3.00;;
14241;SDS011;7205;50.864;12.766;2022-11-10T16:41:58;4.77;;;2.53;;
14241;SDS011;7205;50.864;12.766;2022-11-10T16:44:44;5.63;;;2.53;;
14241;SDS011;7205;50.864;12.766;2022-11-10T16:47:30;7.87;;;2.33;;
14241;SDS011;7205;50.864;12.766;2022-11-10T16:50:28;5.73;;;2.93;;
14241;SDS011;7205;50.864;12.766;2022-11-10T16:53:16;7.60;;;2.87;;
14241;SDS011;7205;50.864;12.766;2022-11-10T16:56:06;3.83;;;2.20;;
14241;SDS011;7205;50.864;12.766;2022-11-10T16:58:57;4.17;;;2.10;;
14241;SDS011;7205;50.864;12.766;2022-11-10T17:01:43;6.70;;;2.77;;
14241;SDS011;7205;50.864;12.766;2022-11-10T17:04:31;4.53;;;2.70;;
14241;SDS011;7205;50.864;12.766;2022-11-10T17:07:17;6.10;;;2.80;;
14241;SDS011;7205;50.864;12.766;2022-11-10T17:10:11;9.13;;;2.90;;
14241;SDS011;7205;50.864;12.766;2022-11-10T17:12:59;7.73;;;3.40;;
14241;SDS011;7205;50.864;12.766;2022-11-10T17:15:44;7.40;;;3.50;;
14241;SDS011;7205;50.864;12.766;2022-11-10T17:18:31;8.67;;;3.10;;
14241;SDS011;7205;50.864;12.766;2022-11-10T17:21:18;8.83;;;2.93;;
14241;SDS011;7205;50.864;12.766;2022-11-10T17:24:05;7.87;;;3.00;;
14241;SDS011;7205;50.864;12.766;2022-11-10T17:26:52;5.50;;;2.93;;
14241;SDS011;7205;50.864;12.766;2022-11-10T17:29:38;9.03;;;3.40;;
14241;SDS011;7205;50.864;12.766;2022-11-10T17:32:24;7.30;;;4.83;;
14241;SDS011;7205;50.864;12.766;2022-11-10T17:35:09;10.43;;;4.43;;
14241;SDS011;7205;50.864;12.766;2022-11-10T17:37:55;5.53;;;2.87;;
14241;SDS011;7205;50.864;12.766;2022-11-10T17:40:43;9.07;;;4.97;;
14241;SDS011;7205;50.864;12.766;2022-11-10T17:43:29;9.37;;;3.43;;
14241;SDS011;7205;50.864;12.766;2022-11-10T17:46:16;6.40;;;2.93;;
14241;SDS011;7205;50.864;12.766;2022-11-10T17:49:01;8.80;;;3.20;;
14241;SDS011;7205;50.864;12.766;2022-11-10T17:51:47;5.10;;;3.27;;
14241;SDS011;7205;50.864;12.766;2022-11-10T17:54:33;6.57;;;3.20;;
14241;SDS011;7205;50.864;12.766;2022-11-10T17:57:19;6.73;;;3.33;;
14241;SDS011;7205;50.864;12.766;2022-11-10T18:00:05;6.07;;;3.13;;
14241;SDS011;7205;50.864;12.766;2022-11-10T18:02:52;8.53;;;3.03;;
14241;SDS011;7205;50.864;12.766;2022-11-10T18:05:38;7.80;;;3.20;;
14241;SDS011;7205;50.864;12.766;2022-11-10T18:08:23;4.83;;;3.10;;
14241;SDS011;7205;50.864;12.766;2022-11-10T18:11:09;5.50;;;3.40;;
14241;SDS011;7205;50.864;12.766;2022-11-10T18:13:55;8.17;;;3.30;;
14241;SDS011;7205;50.864;12.766;2022-11-10T18:16:41;8.63;;;3.47;;
14241;SDS011;7205;50.864;12.766;2022-11-10T18:19:28;5.13;;;2.80;;
14241;SDS011;7205;50.864;12.766;2022-11-10T18:22:13;10.00;;;3.60;;
14241;SDS011;7205;50.864;12.766;2022-11-10T18:24:59;7.40;;;4.30;;
14241;SDS011;7205;50.864;12.766;2022-11-10T18:27:45;11.20;;;6.30;;
14241;SDS011;7205;50.864;12.766;2022-11-10T18:30:30;8.67;;;5.17;;
14241;SDS011;7205;50.864;12.766;2022-11-10T19:14:00;9.80;;;4.77;;
14241;SDS011;7205;50.864;12.766;2022-11-10T19:16:46;7.20;;;3.77;;
14241;SDS011;7205;50.864;12.766;2022-11-10T19:19:31;6.80;;;4.77;;
14241;SDS011;7205;50.864;12.766;2022-11-10T19:22:18;24.17;;;17.17;;
14241;SDS011;7205;50.864;12.766;2022-11-10T19:25:04;11.17;;;6.03;;
14241;SDS011;7205;50.864;12.766;2022-11-10T19:27:49;7.47;;;4.17;;
14241;SDS011;7205;50.864;12.766;2022-11-10T19:30:36;8.57;;;4.13;;
14241;SDS011;7205;50.864;12.766;2022-11-10T19:33:22;4.60;;;3.20;;
14241;SDS011;7205;50.864;12.766;2022-11-10T19:36:08;6.77;;;4.00;;
14241;SDS011;7205;50.864;12.766;2022-11-10T19:38:55;9.27;;;4.07;;
14241;SDS011;7205;50.864;12.766;2022-11-10T19:41:40;7.57;;;3.30;;
14241;SDS011;7205;50.864;12.766;2022-11-10T19:44:26;6.87;;;3.50;;
14241;SDS011;7205;50.864;12.766;2022-11-10T19:47:13;5.27;;;3.50;;
14241;SDS011;7205;50.864;12.766;2022-11-10T19:49:59;6.90;;;3.00;;
14241;SDS011;7205;50.864;12.766;2022-11-10T19:52:44;8.33;;;3.47;;
14241;SDS011;7205;50.864;12.766;2022-11-10T19:55:33;7.87;;;3.40;;
14241;SDS011;7205;50.864;12.766;2022-11-10T19:58:19;9.07;;;3.40;;
14241;SDS011;7205;50.864;12.766;2022-11-10T20:01:05;6.80;;;3.80;;
14241;SDS011;7205;50.864;12.766;2022-11-10T20:03:53;4.33;;;3.43;;
14241;SDS011;7205;50.864;12.766;2022-11-10T20:06:38;9.40;;;3.80;;
14241;SDS011;7205;50.864;12.766;2022-11-10T20:09:25;8.70;;;3.50;;
14241;SDS011;7205;50.864;12.766;2022-11-10T20:12:10;7.10;;;3.47;;
14241;SDS011;7205;50.864;12.766;2022-11-10T20:15:13;6.77;;;3.30;;
14241;SDS011;7205;50.864;12.766;2022-11-10T20:18:32;4.87;;;2.93;;
14241;SDS011;7205;50.864;12.766;2022-11-10T20:21:20;5.17;;;3.07;;
14241;SDS011;7205;50.864;12.766;2022-11-10T20:24:06;7.97;;;3.47;;
14241;SDS011;7205;50.864;12.766;2022-11-10T20:26:53;4.77;;;3.40;;
14241;SDS011;7205;50.864;12.766;2022-11-10T20:29:38;9.30;;;3.67;;
14241;SDS011;7205;50.864;12.766;2022-11-10T20:32:25;6.10;;;3.60;;
14241;SDS011;7205;50.864;12.766;2022-11-10T20:35:26;7.73;;;4.10;;
14241;SDS011;7205;50.864;12.766;2022-11-10T20:38:28;10.53;;;3.37;;
14241;SDS011;7205;50.864;12.766;2022-11-10T20:41:17;10.03;;;3.83;;
14241;SDS011;7205;50.864;12.766;2022-11-10T20:44:46;5.60;;;3.40;;
14241;SDS011;7205;50.864;12.766;2022-11-10T20:47:34;5.40;;;3.43;;
14241;SDS011;7205;50.864;12.766;2022-11-10T20:50:20;8.97;;;3.70;;
14241;SDS011;7205;50.864;12.766;2022-11-10T20:53:06;6.40;;;3.40;;